Greenville, ME

9:52 PM EDT on April 30, 2017 (GMT -0400)
Beaver Cove, Moosehead Lake | | Change Station

Elev 1109 ft 45.56 °N, 69.56 °W | Updated 28 seconds ago

Overcast
Overcast
45.9 °F
Feels Like 46 °F
N
0.0
Wind Variable Wind from South
Gusts 0.0 mph

Today
High -- | Low -- °F
--% Chance of Precip.
Yesterday
High -- | Low -- °F
Precip. -- in
Pressure 30.26 in
Visibility 10.0 miles
Clouds Mostly Cloudy 11000 ft
Windchill 46 °F
Dew Point 28 °F
Humidity 50%
Rainfall 0.00 in
Snow Depth Not available.
5:27 AM 7:44 PM
Waxing Crescent, 28% visible
METAR KMLT 010053Z AUTO 00000KT 10SM BKN110 10/M02 A3024 RMK AO2 SLP247 T01001017 TSNO
Pressure 30.26 in
Visibility 10.0 miles
Clouds Mostly Cloudy 11000 ft
Windchill 46 °F
Dew Point 28 °F
Humidity 50%
Rainfall 0.00 in
Snow Depth Not available.
5:27 AM 7:44 PM
Waxing Crescent, 28% visible
METAR KMLT 010053Z AUTO 00000KT 10SM BKN110 10/M02 A3024 RMK AO2 SLP247 T01001017 TSNO

Get Severe Weather Alerts

Thanks for signing up!

Be on the lookout for a verification email in your inbox.

You'll start receiving the daily forecast at 8 AM.

×

10-Day Weather Forecast

Almanac

Astronomy

Apr. 30, 2017 Rise Set
Actual Time
Civil Twilight
Nautical Twilight
Astronomical Twilight
Moon
Length of Visible Light
Length of Day
Tomorrow will be .
, % of the Moon is Illuminated

Today's Extremes

State Highs State Lows

Community

WunderPhotos

WunderBlog® & News

Nearby

Air Quality

  Air Quality AQ Index Pollutant
Not available.

Snow Depth

Station Depth Elevation

Earthquake Activity

City Distance Mag. Time & Date
Minimum magnitude displayed is 2.5.

Coastal Water Temperatures

Place Temperature

Stations

Nearby Weather Stations

Station Location Temp. Windchill Dew Point Humidity Wind Precip. Elev Updated Type
                   

Watches & Warnings

There are currently no watches in effect.